sensor_id;sensor_type;location;lat;lon;timestamp;P1;P2;P0
46044;PMS7003;31781;54.094;13.428;2023-08-17T00:00:42;1.50;1.50;1.00
46044;PMS7003;31781;54.094;13.428;2023-08-17T00:02:43;2.00;2.00;1.00
46044;PMS7003;31781;54.094;13.428;2023-08-17T00:04:46;3.50;2.00;2.00
46044;PMS7003;31781;54.094;13.428;2023-08-17T00:06:48;1.25;1.25;1.25
46044;PMS7003;31781;54.094;13.428;2023-08-17T00:08:50;1.00;1.00;0.75
46044;PMS7003;31781;54.094;13.428;2023-08-17T00:10:51;2.75;2.75;2.00
46044;PMS7003;31781;54.094;13.428;2023-08-17T00:12:53;2.00;2.00;2.00
46044;PMS7003;31781;54.094;13.428;2023-08-17T00:14:55;1.00;1.00;1.00
46044;PMS7003;31781;54.094;13.428;2023-08-17T00:16:57;2.25;2.25;2.25
46044;PMS7003;31781;54.094;13.428;2023-08-17T00:18:58;3.00;3.00;3.00
46044;PMS7003;31781;54.094;13.428;2023-08-17T00:21:01;2.50;1.25;1.00
46044;PMS7003;31781;54.094;13.428;2023-08-17T00:23:03;2.25;2.25;2.25
46044;PMS7003;31781;54.094;13.428;2023-08-17T00:25:05;1.00;1.00;1.00
46044;PMS7003;31781;54.094;13.428;2023-08-17T00:27:07;2.00;2.00;1.00
46044;PMS7003;31781;54.094;13.428;2023-08-17T00:29:09;1.25;1.25;1.25
46044;PMS7003;31781;54.094;13.428;2023-08-17T00:31:10;1.00;1.00;1.00
46044;PMS7003;31781;54.094;13.428;2023-08-17T00:33:12;1.25;1.25;1.00
46044;PMS7003;31781;54.094;13.428;2023-08-17T00:35:14;1.25;1.25;1.00
46044;PMS7003;31781;54.094;13.428;2023-08-17T00:37:17;1.00;1.00;1.00
46044;PMS7003;31781;54.094;13.428;2023-08-17T00:39:19;1.75;1.50;1.50
46044;PMS7003;31781;54.094;13.428;2023-08-17T00:41:21;2.00;1.75;1.00
46044;PMS7003;31781;54.094;13.428;2023-08-17T00:43:22;2.00;2.00;2.00
46044;PMS7003;31781;54.094;13.428;2023-08-17T00:45:24;2.00;2.00;2.00
46044;PMS7003;31781;54.094;13.428;2023-08-17T00:47:27;2.00;2.00;2.00
46044;PMS7003;31781;54.094;13.428;2023-08-17T00:49:29;2.00;2.00;1.75
46044;PMS7003;31781;54.094;13.428;2023-08-17T00:51:31;2.00;2.00;2.00
46044;PMS7003;31781;54.094;13.428;2023-08-17T00:53:35;2.00;2.00;2.00
46044;PMS7003;31781;54.094;13.428;2023-08-17T00:55:38;1.25;1.25;1.00
46044;PMS7003;31781;54.094;13.428;2023-08-17T00:57:40;1.25;1.25;1.00
46044;PMS7003;31781;54.094;13.428;2023-08-17T00:59:42;2.00;2.00;1.50
46044;PMS7003;31781;54.094;13.428;2023-08-17T01:01:52;2.50;2.50;2.00
46044;PMS7003;31781;54.094;13.428;2023-08-17T01:03:54;2.25;2.25;1.50
46044;PMS7003;31781;54.094;13.428;2023-08-17T01:05:56;1.00;1.00;1.00
46044;PMS7003;31781;54.094;13.428;2023-08-17T01:07:58;2.00;2.00;2.00
46044;PMS7003;31781;54.094;13.428;2023-08-17T01:10:01;2.50;2.25;2.00
46044;PMS7003;31781;54.094;13.428;2023-08-17T01:12:05;3.50;2.25;2.25
46044;PMS7003;31781;54.094;13.428;2023-08-17T01:14:19;3.00;3.00;2.00
46044;PMS7003;31781;54.094;13.428;2023-08-17T01:16:29;2.00;2.00;1.75
46044;PMS7003;31781;54.094;13.428;2023-08-17T01:18:34;2.25;2.25;2.00
46044;PMS7003;31781;54.094;13.428;2023-08-17T01:20:38;4.00;2.25;1.50
46044;PMS7003;31781;54.094;13.428;2023-08-17T01:22:41;2.00;2.00;1.50
46044;PMS7003;31781;54.094;13.428;2023-08-17T01:24:47;2.00;2.00;1.75
46044;PMS7003;31781;54.094;13.428;2023-08-17T01:26:49;3.50;3.50;3.25
46044;PMS7003;31781;54.094;13.428;2023-08-17T01:28:51;2.00;2.00;1.75
46044;PMS7003;31781;54.094;13.428;2023-08-17T01:30:55;3.00;3.00;2.00
46044;PMS7003;31781;54.094;13.428;2023-08-17T01:33:01;3.75;2.75;2.00
46044;PMS7003;31781;54.094;13.428;2023-08-17T01:35:09;3.00;3.00;3.00
46044;PMS7003;31781;54.094;13.428;2023-08-17T01:37:15;2.00;2.00;2.00
46044;PMS7003;31781;54.094;13.428;2023-08-17T01:39:20;1.75;1.75;1.75
46044;PMS7003;31781;54.094;13.428;2023-08-17T01:41:29;2.75;2.75;2.75
46044;PMS7003;31781;54.094;13.428;2023-08-17T01:43:31;2.50;2.50;2.50
46044;PMS7003;31781;54.094;13.428;2023-08-17T01:45:34;4.25;3.25;3.00
46044;PMS7003;31781;54.094;13.428;2023-08-17T01:47:36;2.25;2.25;2.25
46044;PMS7003;31781;54.094;13.428;2023-08-17T01:49:38;4.00;3.00;2.50
46044;PMS7003;31781;54.094;13.428;2023-08-17T01:51:39;4.00;4.00;3.00
46044;PMS7003;31781;54.094;13.428;2023-08-17T01:53:42;3.00;3.00;2.50
46044;PMS7003;31781;54.094;13.428;2023-08-17T01:55:44;2.50;2.50;2.00
46044;PMS7003;31781;54.094;13.428;2023-08-17T01:57:47;3.25;3.25;3.00
46044;PMS7003;31781;54.094;13.428;2023-08-17T01:59:51;2.50;2.50;2.00
46044;PMS7003;31781;54.094;13.428;2023-08-17T02:01:53;4.00;4.00;3.00
46044;PMS7003;31781;54.094;13.428;2023-08-17T02:03:55;2.00;2.00;2.00
46044;PMS7003;31781;54.094;13.428;2023-08-17T02:05:57;3.00;3.00;2.00
46044;PMS7003;31781;54.094;13.428;2023-08-17T02:07:59;3.25;2.00;2.00
46044;PMS7003;31781;54.094;13.428;2023-08-17T02:10:01;2.25;2.25;2.00
46044;PMS7003;31781;54.094;13.428;2023-08-17T02:12:03;3.00;3.00;2.25
46044;PMS7003;31781;54.094;13.428;2023-08-17T02:14:06;3.00;3.00;2.75
46044;PMS7003;31781;54.094;13.428;2023-08-17T02:16:08;1.00;1.00;0.75
46044;PMS7003;31781;54.094;13.428;2023-08-17T02:18:09;3.00;3.00;2.25
46044;PMS7003;31781;54.094;13.428;2023-08-17T02:20:11;2.75;2.75;2.25
46044;PMS7003;31781;54.094;13.428;2023-08-17T02:22:13;3.00;3.00;2.00
46044;PMS7003;31781;54.094;13.428;2023-08-17T02:24:15;1.25;1.25;1.25
46044;PMS7003;31781;54.094;13.428;2023-08-17T02:26:16;3.75;3.75;3.00
46044;PMS7003;31781;54.094;13.428;2023-08-17T02:28:18;2.75;2.75;2.00
46044;PMS7003;31781;54.094;13.428;2023-08-17T02:30:21;3.00;3.00;2.75
46044;PMS7003;31781;54.094;13.428;2023-08-17T02:32:23;4.00;2.25;2.00
46044;PMS7003;31781;54.094;13.428;2023-08-17T02:34:25;2.75;2.75;2.00
46044;PMS7003;31781;54.094;13.428;2023-08-17T02:36:27;1.00;1.00;1.00
46044;PMS7003;31781;54.094;13.428;2023-08-17T02:38:28;3.00;3.00;3.00
46044;PMS7003;31781;54.094;13.428;2023-08-17T02:40:30;2.00;2.00;1.25
46044;PMS7003;31781;54.094;13.428;2023-08-17T02:42:31;2.00;2.00;2.00
46044;PMS7003;31781;54.094;13.428;2023-08-17T02:44:33;2.25;2.25;2.00
46044;PMS7003;31781;54.094;13.428;2023-08-17T02:46:44;3.50;3.50;2.75
46044;PMS7003;31781;54.094;13.428;2023-08-17T02:48:45;2.00;2.00;2.00
46044;PMS7003;31781;54.094;13.428;2023-08-17T02:50:47;3.00;3.00;2.00
46044;PMS7003;31781;54.094;13.428;2023-08-17T02:52:49;2.00;2.00;2.00
46044;PMS7003;31781;54.094;13.428;2023-08-17T02:54:50;3.00;3.00;3.00
46044;PMS7003;31781;54.094;13.428;2023-08-17T02:56:52;2.50;2.50;1.75
46044;PMS7003;31781;54.094;13.428;2023-08-17T02:58:53;1.50;1.00;1.00
46044;PMS7003;31781;54.094;13.428;2023-08-17T03:00:55;1.50;1.50;1.00
46044;PMS7003;31781;54.094;13.428;2023-08-17T03:02:58;0.25;0.25;0.00
46044;PMS7003;31781;54.094;13.428;2023-08-17T03:05:00;1.50;1.50;1.00
46044;PMS7003;31781;54.094;13.428;2023-08-17T03:07:02;2.00;2.00;2.00
46044;PMS7003;31781;54.094;13.428;2023-08-17T03:09:04;3.00;1.50;1.00
46044;PMS7003;31781;54.094;13.428;2023-08-17T03:11:05;3.50;2.00;2.00
46044;PMS7003;31781;54.094;13.428;2023-08-17T03:13:07;1.75;1.75;1.75
46044;PMS7003;31781;54.094;13.428;2023-08-17T03:15:10;3.00;3.00;2.00
46044;PMS7003;31781;54.094;13.428;2023-08-17T03:17:11;1.75;1.75;1.25
46044;PMS7003;31781;54.094;13.428;2023-08-17T03:19:14;1.50;1.50;1.50
46044;PMS7003;31781;54.094;13.428;2023-08-17T03:21:16;3.25;2.25;2.00
46044;PMS7003;31781;54.094;13.428;2023-08-17T03:23:18;3.00;2.00;1.50
46044;PMS7003;31781;54.094;13.428;2023-08-17T03:25:20;2.00;2.00;2.00
46044;PMS7003;31781;54.094;13.428;2023-08-17T03:27:21;2.00;2.00;1.50
46044;PMS7003;31781;54.094;13.428;2023-08-17T03:29:27;3.00;2.00;1.75
46044;PMS7003;31781;54.094;13.428;2023-08-17T03:31:28;2.50;2.50;2.00
46044;PMS7003;31781;54.094;13.428;2023-08-17T03:33:30;2.00;2.00;1.50
46044;PMS7003;31781;54.094;13.428;2023-08-17T03:35:33;2.00;2.00;2.00
46044;PMS7003;31781;54.094;13.428;2023-08-17T03:37:35;1.50;1.50;1.50
46044;PMS7003;31781;54.094;13.428;2023-08-17T03:39:36;3.00;3.00;2.25
46044;PMS7003;31781;54.094;13.428;2023-08-17T03:41:38;2.00;2.00;2.00
46044;PMS7003;31781;54.094;13.428;2023-08-17T03:43:40;3.25;3.25;2.75
46044;PMS7003;31781;54.094;13.428;2023-08-17T03:45:41;2.25;2.25;2.25
46044;PMS7003;31781;54.094;13.428;2023-08-17T03:47:43;2.50;2.50;2.25
46044;PMS7003;31781;54.094;13.428;2023-08-17T03:49:45;2.50;2.50;2.25
46044;PMS7003;31781;54.094;13.428;2023-08-17T03:51:48;2.75;2.75;2.00
46044;PMS7003;31781;54.094;13.428;2023-08-17T03:53:50;3.60;3.60;3.40
46044;PMS7003;31781;54.094;13.428;2023-08-17T03:55:52;3.75;2.75;2.25
46044;PMS7003;31781;54.094;13.428;2023-08-17T03:57:53;3.00;3.00;2.50
46044;PMS7003;31781;54.094;13.428;2023-08-17T03:59:55;3.00;3.00;2.00
46044;PMS7003;31781;54.094;13.428;2023-08-17T04:01:57;2.80;2.80;2.40
46044;PMS7003;31781;54.094;13.428;2023-08-17T04:03:59;2.25;2.25;2.00
46044;PMS7003;31781;54.094;13.428;2023-08-17T04:06:04;3.25;3.25;2.50
46044;PMS7003;31781;54.094;13.428;2023-08-17T04:08:08;4.40;2.60;2.00
46044;PMS7003;31781;54.094;13.428;2023-08-17T04:10:09;2.75;2.75;2.00
46044;PMS7003;31781;54.094;13.428;2023-08-17T04:12:11;2.75;2.75;2.00
46044;PMS7003;31781;54.094;13.428;2023-08-17T04:14:13;3.00;3.00;2.00
46044;PMS7003;31781;54.094;13.428;2023-08-17T04:16:15;3.00;2.00;1.75
46044;PMS7003;31781;54.094;13.428;2023-08-17T04:18:16;4.20;4.20;3.00
46044;PMS7003;31781;54.094;13.428;2023-08-17T04:20:18;4.00;4.00;3.00
46044;PMS7003;31781;54.094;13.428;2023-08-17T04:22:20;3.50;3.50;2.50
46044;PMS7003;31781;54.094;13.428;2023-08-17T04:24:23;3.75;3.75;3.00
46044;PMS7003;31781;54.094;13.428;2023-08-17T04:26:26;3.00;3.00;2.25
46044;PMS7003;31781;54.094;13.428;2023-08-17T04:28:28;2.50;2.50;1.75
46044;PMS7003;31781;54.094;13.428;2023-08-17T04:30:30;3.00;3.00;2.75
46044;PMS7003;31781;54.094;13.428;2023-08-17T04:32:31;2.50;2.50;2.00
46044;PMS7003;31781;54.094;13.428;2023-08-17T04:34:33;3.00;3.00;2.75
46044;PMS7003;31781;54.094;13.428;2023-08-17T04:36:35;3.00;3.00;2.00
46044;PMS7003;31781;54.094;13.428;2023-08-17T04:38:36;2.00;2.00;2.00
46044;PMS7003;31781;54.094;13.428;2023-08-17T04:40:39;3.60;3.60;2.80
46044;PMS7003;31781;54.094;13.428;2023-08-17T04:42:41;1.25;1.25;1.25
46044;PMS7003;31781;54.094;13.428;2023-08-17T04:44:43;2.50;2.50;2.00
46044;PMS7003;31781;54.094;13.428;2023-08-17T04:46:45;3.00;2.00;1.00
46044;PMS7003;31781;54.094;13.428;2023-08-17T04:48:47;3.00;3.00;2.60
46044;PMS7003;31781;54.094;13.428;2023-08-17T04:50:48;2.00;2.00;2.00
46044;PMS7003;31781;54.094;13.428;2023-08-17T04:52:53;1.50;1.50;1.00
46044;PMS7003;31781;54.094;13.428;2023-08-17T04:54:55;2.25;2.25;1.00
46044;PMS7003;31781;54.094;13.428;2023-08-17T04:56:58;2.75;2.25;2.25
46044;PMS7003;31781;54.094;13.428;2023-08-17T04:59:00;1.00;1.00;1.00
46044;PMS7003;31781;54.094;13.428;2023-08-17T05:01:03;3.50;3.00;2.00
46044;PMS7003;31781;54.094;13.428;2023-08-17T05:03:04;2.00;2.00;2.00
46044;PMS7003;31781;54.094;13.428;2023-08-17T05:05:12;2.25;2.25;2.00
46044;PMS7003;31781;54.094;13.428;2023-08-17T05:07:14;1.75;1.75;1.50
46044;PMS7003;31781;54.094;13.428;2023-08-17T05:09:16;2.50;2.50;2.00
46044;PMS7003;31781;54.094;13.428;2023-08-17T05:11:17;1.50;1.50;1.50
46044;PMS7003;31781;54.094;13.428;2023-08-17T05:13:20;1.00;1.00;1.00
46044;PMS7003;31781;54.094;13.428;2023-08-17T05:15:22;1.00;1.00;1.00
46044;PMS7003;31781;54.094;13.428;2023-08-17T05:17:24;1.25;1.00;1.00
46044;PMS7003;31781;54.094;13.428;2023-08-17T05:19:26;1.00;1.00;1.00
46044;PMS7003;31781;54.094;13.428;2023-08-17T05:21:28;3.25;1.75;1.00
46044;PMS7003;31781;54.094;13.428;2023-08-17T05:23:30;0.25;0.25;0.25
46044;PMS7003;31781;54.094;13.428;2023-08-17T05:25:31;1.00;1.00;1.00
46044;PMS7003;31781;54.094;13.428;2023-08-17T05:27:33;1.00;1.00;0.00
46044;PMS7003;31781;54.094;13.428;2023-08-17T05:29:36;2.00;0.25;0.00
46044;PMS7003;31781;54.094;13.428;2023-08-17T05:31:38;1.00;1.00;1.00
46044;PMS7003;31781;54.094;13.428;2023-08-17T05:33:42;1.00;1.00;1.00
46044;PMS7003;31781;54.094;13.428;2023-08-17T05:35:44;1.50;1.50;1.00
46044;PMS7003;31781;54.094;13.428;2023-08-17T05:37:45;1.50;1.50;1.00
46044;PMS7003;31781;54.094;13.428;2023-08-17T05:39:47;1.25;1.25;1.25
46044;PMS7003;31781;54.094;13.428;2023-08-17T05:41:49;1.00;1.00;0.25
46044;PMS7003;31781;54.094;13.428;2023-08-17T05:43:50;2.25;1.25;1.00
46044;PMS7003;31781;54.094;13.428;2023-08-17T05:45:54;0.75;0.75;0.50
46044;PMS7003;31781;54.094;13.428;2023-08-17T05:47:58;1.50;1.50;1.50
46044;PMS7003;31781;54.094;13.428;2023-08-17T05:50:00;1.00;1.00;1.00
46044;PMS7003;31781;54.094;13.428;2023-08-17T05:52:02;2.00;2.00;2.00
46044;PMS7003;31781;54.094;13.428;2023-08-17T05:54:04;1.25;1.25;1.00
46044;PMS7003;31781;54.094;13.428;2023-08-17T05:56:05;0.00;0.00;0.00
46044;PMS7003;31781;54.094;13.428;2023-08-17T05:58:07;1.00;1.00;1.00
46044;PMS7003;31781;54.094;13.428;2023-08-17T06:00:09;1.00;1.00;1.00
46044;PMS7003;31781;54.094;13.428;2023-08-17T06:02:13;1.00;1.00;0.50
46044;PMS7003;31781;54.094;13.428;2023-08-17T06:04:15;0.75;0.75;0.50
46044;PMS7003;31781;54.094;13.428;2023-08-17T06:06:17;1.00;1.00;1.00
46044;PMS7003;31781;54.094;13.428;2023-08-17T06:08:19;0.50;0.50;0.25
46044;PMS7003;31781;54.094;13.428;2023-08-17T06:10:20;1.75;1.75;1.00
46044;PMS7003;31781;54.094;13.428;2023-08-17T06:12:22;0.25;0.25;0.00
46044;PMS7003;31781;54.094;13.428;2023-08-17T06:14:24;1.75;1.00;1.00
46044;PMS7003;31781;54.094;13.428;2023-08-17T06:16:26;1.00;1.00;0.25
46044;PMS7003;31781;54.094;13.428;2023-08-17T06:18:29;1.00;1.00;1.00
46044;PMS7003;31781;54.094;13.428;2023-08-17T06:20:31;2.00;0.00;0.00
46044;PMS7003;31781;54.094;13.428;2023-08-17T06:22:33;0.00;0.00;0.00
46044;PMS7003;31781;54.094;13.428;2023-08-17T06:24:34;0.50;0.50;0.50
46044;PMS7003;31781;54.094;13.428;2023-08-17T06:26:36;1.00;1.00;0.75
46044;PMS7003;31781;54.094;13.428;2023-08-17T06:28:38;2.50;1.00;1.00
46044;PMS7003;31781;54.094;13.428;2023-08-17T06:30:40;0.00;0.00;0.00
46044;PMS7003;31781;54.094;13.428;2023-08-17T06:32:41;2.00;0.75;0.50
46044;PMS7003;31781;54.094;13.428;2023-08-17T06:34:45;0.00;0.00;0.00
46044;PMS7003;31781;54.094;13.428;2023-08-17T06:36:56;1.00;1.00;1.00
46044;PMS7003;31781;54.094;13.428;2023-08-17T06:38:58;1.00;1.00;1.00
46044;PMS7003;31781;54.094;13.428;2023-08-17T06:41:00;1.25;0.75;0.50
46044;PMS7003;31781;54.094;13.428;2023-08-17T06:43:02;1.00;1.00;1.00
46044;PMS7003;31781;54.094;13.428;2023-08-17T06:45:05;2.00;0.00;0.00
46044;PMS7003;31781;54.094;13.428;2023-08-17T06:47:08;1.00;1.00;1.00
46044;PMS7003;31781;54.094;13.428;2023-08-17T06:49:10;1.00;1.00;1.00
46044;PMS7003;31781;54.094;13.428;2023-08-17T06:51:13;1.00;1.00;1.00
46044;PMS7003;31781;54.094;13.428;2023-08-17T06:53:15;0.00;0.00;0.00
46044;PMS7003;31781;54.094;13.428;2023-08-17T06:55:17;1.50;1.00;0.75
46044;PMS7003;31781;54.094;13.428;2023-08-17T06:57:19;0.00;0.00;0.00
46044;PMS7003;31781;54.094;13.428;2023-08-17T06:59:20;0.00;0.00;0.00
46044;PMS7003;31781;54.094;13.428;2023-08-17T07:01:22;0.25;0.25;0.00
46044;PMS7003;31781;54.094;13.428;2023-08-17T07:03:24;0.00;0.00;0.00
46044;PMS7003;31781;54.094;13.428;2023-08-17T07:05:26;0.25;0.25;0.25
46044;PMS7003;31781;54.094;13.428;2023-08-17T07:07:30;0.25;0.25;0.00
46044;PMS7003;31781;54.094;13.428;2023-08-17T07:09:32;0.00;0.00;0.00
46044;PMS7003;31781;54.094;13.428;2023-08-17T07:11:34;0.00;0.00;0.00
46044;PMS7003;31781;54.094;13.428;2023-08-17T07:13:36;0.75;0.75;0.75
46044;PMS7003;31781;54.094;13.428;2023-08-17T07:15:37;0.75;0.75;0.75
46044;PMS7003;31781;54.094;13.428;2023-08-17T07:17:39;0.75;0.25;0.25
46044;PMS7003;31781;54.094;13.428;2023-08-17T07:19:41;0.00;0.00;0.00
46044;PMS7003;31781;54.094;13.428;2023-08-17T07:21:46;1.50;0.00;0.00
46044;PMS7003;31781;54.094;13.428;2023-08-17T07:23:50;0.00;0.00;0.00
46044;PMS7003;31781;54.094;13.428;2023-08-17T07:25:52;0.00;0.00;0.00
46044;PMS7003;31781;54.094;13.428;2023-08-17T07:27:54;1.50;1.00;1.00
46044;PMS7003;31781;54.094;13.428;2023-08-17T07:29:55;0.00;0.00;0.00
46044;PMS7003;31781;54.094;13.428;2023-08-17T07:31:57;0.00;0.00;0.00
46044;PMS7003;31781;54.094;13.428;2023-08-17T07:33:59;1.50;1.00;1.00
46044;PMS7003;31781;54.094;13.428;2023-08-17T07:36:01;0.00;0.00;0.00
46044;PMS7003;31781;54.094;13.428;2023-08-17T07:38:03;0.00;0.00;0.00
46044;PMS7003;31781;54.094;13.428;2023-08-17T07:40:11;0.00;0.00;0.00
46044;PMS7003;31781;54.094;13.428;2023-08-17T07:42:13;0.00;0.00;0.00
46044;PMS7003;31781;54.094;13.428;2023-08-17T07:44:15;1.00;1.00;0.00
46044;PMS7003;31781;54.094;13.428;2023-08-17T07:46:16;0.00;0.00;0.00
46044;PMS7003;31781;54.094;13.428;2023-08-17T07:48:18;1.00;1.00;1.00
46044;PMS7003;31781;54.094;13.428;2023-08-17T07:50:20;0.00;0.00;0.00
46044;PMS7003;31781;54.094;13.428;2023-08-17T07:52:21;0.50;0.00;0.00
46044;PMS7003;31781;54.094;13.428;2023-08-17T07:54:23;0.00;0.00;0.00
46044;PMS7003;31781;54.094;13.428;2023-08-17T07:56:26;0.00;0.00;0.00
46044;PMS7003;31781;54.094;13.428;2023-08-17T07:58:28;0.00;0.00;0.00
46044;PMS7003;31781;54.094;13.428;2023-08-17T08:00:30;0.75;0.00;0.00
46044;PMS7003;31781;54.094;13.428;2023-08-17T08:02:31;0.50;0.50;0.50
46044;PMS7003;31781;54.094;13.428;2023-08-17T08:04:33;1.50;1.00;0.25
46044;PMS7003;31781;54.094;13.428;2023-08-17T08:06:35;0.50;0.00;0.00
46044;PMS7003;31781;54.094;13.428;2023-08-17T08:08:36;0.00;0.00;0.00
46044;PMS7003;31781;54.094;13.428;2023-08-17T08:10:38;0.00;0.00;0.00
46044;PMS7003;31781;54.094;13.428;2023-08-17T08:12:42;1.00;1.00;1.00
46044;PMS7003;31781;54.094;13.428;2023-08-17T08:14:44;0.00;0.00;0.00
46044;PMS7003;31781;54.094;13.428;2023-08-17T08:16:45;1.00;1.00;1.00
46044;PMS7003;31781;54.094;13.428;2023-08-17T08:18:47;2.00;0.25;0.25
46044;PMS7003;31781;54.094;13.428;2023-08-17T08:20:49;0.75;0.75;0.75
46044;PMS7003;31781;54.094;13.428;2023-08-17T08:22:50;1.75;1.75;1.75
46044;PMS7003;31781;54.094;13.428;2023-08-17T08:24:52;3.25;3.25;2.75
46044;PMS7003;31781;54.094;13.428;2023-08-17T08:26:54;4.25;3.75;3.50
46044;PMS7003;31781;54.094;13.428;2023-08-17T08:28:57;5.00;5.00;5.00
46044;PMS7003;31781;54.094;13.428;2023-08-17T08:31:00;2.75;2.75;2.75
46044;PMS7003;31781;54.094;13.428;2023-08-17T08:33:03;2.75;1.75;1.75
46044;PMS7003;31781;54.094;13.428;2023-08-17T08:35:05;1.75;1.75;1.75
46044;PMS7003;31781;54.094;13.428;2023-08-17T08:37:07;1.75;1.00;1.00
46044;PMS7003;31781;54.094;13.428;2023-08-17T08:39:09;1.00;0.75;0.75
46044;PMS7003;31781;54.094;13.428;2023-08-17T08:41:10;0.00;0.00;0.00
46044;PMS7003;31781;54.094;13.428;2023-08-17T08:43:13;0.25;0.00;0.00
46044;PMS7003;31781;54.094;13.428;2023-08-17T08:45:16;0.00;0.00;0.00
46044;PMS7003;31781;54.094;13.428;2023-08-17T08:47:18;0.50;0.50;0.50
46044;PMS7003;31781;54.094;13.428;2023-08-17T08:49:20;2.00;1.00;0.50
46044;PMS7003;31781;54.094;13.428;2023-08-17T08:51:28;1.00;0.75;0.50
46044;PMS7003;31781;54.094;13.428;2023-08-17T08:53:33;0.00;0.00;0.00
46044;PMS7003;31781;54.094;13.428;2023-08-17T08:55:38;0.25;0.25;0.00
46044;PMS7003;31781;54.094;13.428;2023-08-17T08:57:46;2.00;0.00;0.00
46044;PMS7003;31781;54.094;13.428;2023-08-17T08:59:52;0.75;0.75;0.75
46044;PMS7003;31781;54.094;13.428;2023-08-17T09:02:00;1.00;1.00;0.25
46044;PMS7003;31781;54.094;13.428;2023-08-17T09:04:02;2.00;1.50;0.75
46044;PMS7003;31781;54.094;13.428;2023-08-17T09:06:04;2.00;1.00;1.00
46044;PMS7003;31781;54.094;13.428;2023-08-17T09:08:08;1.50;1.50;1.00
46044;PMS7003;31781;54.094;13.428;2023-08-17T09:10:11;0.00;0.00;0.00
46044;PMS7003;31781;54.094;13.428;2023-08-17T09:12:12;1.00;1.00;1.00
46044;PMS7003;31781;54.094;13.428;2023-08-17T09:14:26;1.00;0.00;0.00
46044;PMS7003;31781;54.094;13.428;2023-08-17T09:16:28;1.00;1.00;0.75
46044;PMS7003;31781;54.094;13.428;2023-08-17T09:18:31;1.75;1.00;1.00
46044;PMS7003;31781;54.094;13.428;2023-08-17T09:20:39;1.50;1.00;0.50
46044;PMS7003;31781;54.094;13.428;2023-08-17T09:22:47;1.50;0.75;0.25
46044;PMS7003;31781;54.094;13.428;2023-08-17T09:24:54;0.50;0.50;0.25
46044;PMS7003;31781;54.094;13.428;2023-08-17T09:26:55;1.00;0.00;0.00
46044;PMS7003;31781;54.094;13.428;2023-08-17T09:28:57;5.00;1.00;1.00
46044;PMS7003;31781;54.094;13.428;2023-08-17T09:31:02;2.75;1.00;1.00
46044;PMS7003;31781;54.094;13.428;2023-08-17T09:33:04;2.25;1.00;0.75
46044;PMS7003;31781;54.094;13.428;2023-08-17T09:35:08;1.75;0.00;0.00
46044;PMS7003;31781;54.094;13.428;2023-08-17T09:37:11;1.00;1.00;0.75
46044;PMS7003;31781;54.094;13.428;2023-08-17T09:39:15;1.00;1.00;0.50
46044;PMS7003;31781;54.094;13.428;2023-08-17T09:41:17;1.00;1.00;0.50
46044;PMS7003;31781;54.094;13.428;2023-08-17T09:43:19;0.50;0.50;0.25
46044;PMS7003;31781;54.094;13.428;2023-08-17T09:45:21;1.00;1.00;1.00
46044;PMS7003;31781;54.094;13.428;2023-08-17T09:47:23;0.00;0.00;0.00
46044;PMS7003;31781;54.094;13.428;2023-08-17T09:49:24;1.00;1.00;1.00
46044;PMS7003;31781;54.094;13.428;2023-08-17T09:51:27;0.00;0.00;0.00
46044;PMS7003;31781;54.094;13.428;2023-08-17T09:53:34;0.50;0.50;0.50
46044;PMS7003;31781;54.094;13.428;2023-08-17T09:55:37;1.00;1.00;0.75
46044;PMS7003;31781;54.094;13.428;2023-08-17T09:57:42;0.75;0.75;0.75
46044;PMS7003;31781;54.094;13.428;2023-08-17T09:59:44;1.00;1.00;1.00
46044;PMS7003;31781;54.094;13.428;2023-08-17T10:01:48;0.25;0.25;0.25
46044;PMS7003;31781;54.094;13.428;2023-08-17T10:03:57;1.00;1.00;1.00
46044;PMS7003;31781;54.094;13.428;2023-08-17T10:06:06;0.00;0.00;0.00
46044;PMS7003;31781;54.094;13.428;2023-08-17T10:14:18;1.50;0.75;0.75
46044;PMS7003;31781;54.094;13.428;2023-08-17T10:16:32;0.25;0.25;0.00
46044;PMS7003;31781;54.094;13.428;2023-08-17T10:18:50;2.00;1.00;1.00
46044;PMS7003;31781;54.094;13.428;2023-08-17T10:20:58;1.00;1.00;0.75
46044;PMS7003;31781;54.094;13.428;2023-08-17T10:23:05;1.00;1.00;1.00
46044;PMS7003;31781;54.094;13.428;2023-08-17T10:25:12;0.00;0.00;0.00
46044;PMS7003;31781;54.094;13.428;2023-08-17T10:27:14;1.00;1.00;1.00
46044;PMS7003;31781;54.094;13.428;2023-08-17T10:29:19;0.00;0.00;0.00
46044;PMS7003;31781;54.094;13.428;2023-08-17T10:31:23;0.00;0.00;0.00
46044;PMS7003;31781;54.094;13.428;2023-08-17T10:33:26;0.00;0.00;0.00
46044;PMS7003;31781;54.094;13.428;2023-08-17T10:35:29;0.00;0.00;0.00
46044;PMS7003;31781;54.094;13.428;2023-08-17T10:37:32;1.00;1.00;1.00
46044;PMS7003;31781;54.094;13.428;2023-08-17T10:39:34;0.00;0.00;0.00
46044;PMS7003;31781;54.094;13.428;2023-08-17T10:41:45;0.00;0.00;0.00
46044;PMS7003;31781;54.094;13.428;2023-08-17T10:43:54;0.00;0.00;0.00
46044;PMS7003;31781;54.094;13.428;2023-08-17T10:48:27;1.20;0.00;0.00
46044;PMS7003;31781;54.094;13.428;2023-08-17T10:50:30;0.40;0.40;0.40
46044;PMS7003;31781;54.094;13.428;2023-08-17T10:52:32;0.60;0.60;0.00
46044;PMS7003;31781;54.094;13.428;2023-08-17T10:54:38;1.20;0.00;0.00
46044;PMS7003;31781;54.094;13.428;2023-08-17T10:56:40;0.00;0.00;0.00
46044;PMS7003;31781;54.094;13.428;2023-08-17T10:58:42;0.00;0.00;0.00
46044;PMS7003;31781;54.094;13.428;2023-08-17T11:00:44;0.00;0.00;0.00
46044;PMS7003;31781;54.094;13.428;2023-08-17T11:02:59;0.00;0.00;0.00
46044;PMS7003;31781;54.094;13.428;2023-08-17T11:05:02;0.00;0.00;0.00
46044;PMS7003;31781;54.094;13.428;2023-08-17T11:07:04;0.00;0.00;0.00
46044;PMS7003;31781;54.094;13.428;2023-08-17T11:09:15;0.00;0.00;0.00
46044;PMS7003;31781;54.094;13.428;2023-08-17T11:11:17;0.00;0.00;0.00
46044;PMS7003;31781;54.094;13.428;2023-08-17T11:13:21;0.00;0.00;0.00
46044;PMS7003;31781;54.094;13.428;2023-08-17T11:15:25;0.60;0.60;0.00
46044;PMS7003;31781;54.094;13.428;2023-08-17T11:17:27;0.00;0.00;0.00
46044;PMS7003;31781;54.094;13.428;2023-08-17T11:19:30;0.00;0.00;0.00
46044;PMS7003;31781;54.094;13.428;2023-08-17T11:21:31;0.00;0.00;0.00
46044;PMS7003;31781;54.094;13.428;2023-08-17T11:23:34;0.00;0.00;0.00
46044;PMS7003;31781;54.094;13.428;2023-08-17T11:25:37;0.00;0.00;0.00
46044;PMS7003;31781;54.094;13.428;2023-08-17T11:27:39;0.00;0.00;0.00
46044;PMS7003;31781;54.094;13.428;2023-08-17T11:29:41;0.00;0.00;0.00
46044;PMS7003;31781;54.094;13.428;2023-08-17T11:31:45;0.00;0.00;0.00
46044;PMS7003;31781;54.094;13.428;2023-08-17T11:33:51;1.00;1.00;0.40
46044;PMS7003;31781;54.094;13.428;2023-08-17T11:35:57;0.00;0.00;0.00
46044;PMS7003;31781;54.094;13.428;2023-08-17T11:38:04;0.00;0.00;0.00
46044;PMS7003;31781;54.094;13.428;2023-08-17T11:40:09;0.00;0.00;0.00
46044;PMS7003;31781;54.094;13.428;2023-08-17T11:42:14;0.00;0.00;0.00
46044;PMS7003;31781;54.094;13.428;2023-08-17T11:44:22;0.80;0.00;0.00
46044;PMS7003;31781;54.094;13.428;2023-08-17T11:46:25;0.00;0.00;0.00
46044;PMS7003;31781;54.094;13.428;2023-08-17T11:48:30;0.00;0.00;0.00
46044;PMS7003;31781;54.094;13.428;2023-08-17T11:50:35;0.00;0.00;0.00
46044;PMS7003;31781;54.094;13.428;2023-08-17T11:52:41;0.00;0.00;0.00
46044;PMS7003;31781;54.094;13.428;2023-08-17T11:54:46;0.80;0.00;0.00
46044;PMS7003;31781;54.094;13.428;2023-08-17T11:56:52;0.00;0.00;0.00